sensor_id;sensor_type;location;lat;lon;timestamp;P1;durP1;ratioP1;P2;durP2;ratioP2
56860;SDS011;42744;51.094;3.490;2023-06-04T00:02:25;5.10;;;2.10;;
56860;SDS011;42744;51.094;3.490;2023-06-04T00:04:51;2.07;;;1.43;;
56860;SDS011;42744;51.094;3.490;2023-06-04T00:07:17;5.53;;;1.97;;
56860;SDS011;42744;51.094;3.490;2023-06-04T00:09:43;4.70;;;1.80;;
56860;SDS011;42744;51.094;3.490;2023-06-04T00:12:12;3.13;;;1.87;;
56860;SDS011;42744;51.094;3.490;2023-06-04T00:14:38;4.47;;;1.70;;
56860;SDS011;42744;51.094;3.490;2023-06-04T00:17:04;3.83;;;2.07;;
56860;SDS011;42744;51.094;3.490;2023-06-04T00:19:31;5.03;;;1.80;;
56860;SDS011;42744;51.094;3.490;2023-06-04T00:21:59;4.60;;;2.03;;
56860;SDS011;42744;51.094;3.490;2023-06-04T00:24:25;3.60;;;2.00;;
56860;SDS011;42744;51.094;3.490;2023-06-04T00:26:51;3.67;;;1.87;;
56860;SDS011;42744;51.094;3.490;2023-06-04T00:29:17;3.67;;;2.07;;
56860;SDS011;42744;51.094;3.490;2023-06-04T00:31:43;4.07;;;2.07;;
56860;SDS011;42744;51.094;3.490;2023-06-04T00:34:10;3.50;;;1.80;;
56860;SDS011;42744;51.094;3.490;2023-06-04T00:36:36;3.33;;;1.90;;
56860;SDS011;42744;51.094;3.490;2023-06-04T00:39:06;3.97;;;1.93;;
56860;SDS011;42744;51.094;3.490;2023-06-04T00:41:32;2.47;;;1.97;;
56860;SDS011;42744;51.094;3.490;2023-06-04T00:43:58;4.63;;;2.17;;
56860;SDS011;42744;51.094;3.490;2023-06-04T00:46:27;7.07;;;2.00;;
56860;SDS011;42744;51.094;3.490;2023-06-04T00:48:54;3.47;;;1.90;;
56860;SDS011;42744;51.094;3.490;2023-06-04T00:51:21;3.13;;;2.00;;
56860;SDS011;42744;51.094;3.490;2023-06-04T00:53:50;5.10;;;1.97;;
56860;SDS011;42744;51.094;3.490;2023-06-04T00:56:17;2.80;;;1.73;;
56860;SDS011;42744;51.094;3.490;2023-06-04T00:58:44;3.63;;;1.60;;
56860;SDS011;42744;51.094;3.490;2023-06-04T01:07:29;2.50;;;1.63;;
56860;SDS011;42744;51.094;3.490;2023-06-04T01:09:56;5.13;;;2.00;;
56860;SDS011;42744;51.094;3.490;2023-06-04T01:12:23;3.17;;;1.73;;
56860;SDS011;42744;51.094;3.490;2023-06-04T01:14:49;3.60;;;2.20;;
56860;SDS011;42744;51.094;3.490;2023-06-04T01:17:17;3.60;;;2.00;;
56860;SDS011;42744;51.094;3.490;2023-06-04T01:27:50;4.33;;;2.07;;
56860;SDS011;42744;51.094;3.490;2023-06-04T01:30:20;5.80;;;1.90;;
56860;SDS011;42744;51.094;3.490;2023-06-04T01:32:51;3.80;;;1.80;;
56860;SDS011;42744;51.094;3.490;2023-06-04T01:35:19;4.13;;;1.90;;
56860;SDS011;42744;51.094;3.490;2023-06-04T01:37:46;2.83;;;1.70;;
56860;SDS011;42744;51.094;3.490;2023-06-04T01:40:13;3.93;;;1.80;;
56860;SDS011;42744;51.094;3.490;2023-06-04T01:42:40;3.67;;;1.80;;
56860;SDS011;42744;51.094;3.490;2023-06-04T01:45:06;3.23;;;1.93;;
56860;SDS011;42744;51.094;3.490;2023-06-04T01:47:33;2.10;;;1.70;;
56860;SDS011;42744;51.094;3.490;2023-06-04T01:50:02;3.40;;;1.60;;
56860;SDS011;42744;51.094;3.490;2023-06-04T01:52:30;3.57;;;2.10;;
56860;SDS011;42744;51.094;3.490;2023-06-04T01:54:58;5.53;;;2.13;;
56860;SDS011;42744;51.094;3.490;2023-06-04T01:57:27;4.03;;;2.10;;
56860;SDS011;42744;51.094;3.490;2023-06-04T01:59:53;3.93;;;1.77;;
56860;SDS011;42744;51.094;3.490;2023-06-04T02:02:19;4.00;;;1.90;;
56860;SDS011;42744;51.094;3.490;2023-06-04T02:04:46;5.53;;;2.10;;
56860;SDS011;42744;51.094;3.490;2023-06-04T02:07:13;9.37;;;2.00;;
56860;SDS011;42744;51.094;3.490;2023-06-04T02:09:43;2.67;;;1.80;;
56860;SDS011;42744;51.094;3.490;2023-06-04T02:12:09;5.20;;;2.07;;
56860;SDS011;42744;51.094;3.490;2023-06-04T02:14:38;3.33;;;2.10;;
56860;SDS011;42744;51.094;3.490;2023-06-04T02:17:04;4.13;;;2.07;;
56860;SDS011;42744;51.094;3.490;2023-06-04T02:19:35;2.50;;;2.23;;
56860;SDS011;42744;51.094;3.490;2023-06-04T02:22:02;5.27;;;2.20;;
56860;SDS011;42744;51.094;3.490;2023-06-04T02:24:28;3.67;;;2.20;;
56860;SDS011;42744;51.094;3.490;2023-06-04T02:26:54;3.50;;;2.40;;
56860;SDS011;42744;51.094;3.490;2023-06-04T02:29:20;2.47;;;1.73;;
56860;SDS011;42744;51.094;3.490;2023-06-04T02:31:46;5.53;;;2.20;;
56860;SDS011;42744;51.094;3.490;2023-06-04T02:34:12;3.47;;;1.97;;
56860;SDS011;42744;51.094;3.490;2023-06-04T02:36:39;4.13;;;2.23;;
56860;SDS011;42744;51.094;3.490;2023-06-04T02:39:05;10.23;;;2.40;;
56860;SDS011;42744;51.094;3.490;2023-06-04T02:41:31;3.17;;;2.07;;
56860;SDS011;42744;51.094;3.490;2023-06-04T02:43:57;6.17;;;2.73;;
56860;SDS011;42744;51.094;3.490;2023-06-04T02:46:23;5.00;;;2.60;;
56860;SDS011;42744;51.094;3.490;2023-06-04T02:48:50;4.80;;;2.33;;
56860;SDS011;42744;51.094;3.490;2023-06-04T02:51:16;5.47;;;2.37;;
56860;SDS011;42744;51.094;3.490;2023-06-04T02:53:42;4.03;;;2.07;;
56860;SDS011;42744;51.094;3.490;2023-06-04T02:56:08;6.83;;;2.77;;
56860;SDS011;42744;51.094;3.490;2023-06-04T02:58:35;4.03;;;2.10;;
56860;SDS011;42744;51.094;3.490;2023-06-04T03:01:04;4.57;;;2.40;;
56860;SDS011;42744;51.094;3.490;2023-06-04T03:03:30;5.40;;;2.83;;
56860;SDS011;42744;51.094;3.490;2023-06-04T03:05:57;7.30;;;2.80;;
56860;SDS011;42744;51.094;3.490;2023-06-04T03:08:25;4.50;;;2.43;;
56860;SDS011;42744;51.094;3.490;2023-06-04T03:10:51;4.00;;;2.80;;
56860;SDS011;42744;51.094;3.490;2023-06-04T03:13:18;4.83;;;2.87;;
56860;SDS011;42744;51.094;3.490;2023-06-04T03:15:44;4.17;;;2.87;;
56860;SDS011;42744;51.094;3.490;2023-06-04T03:18:13;3.90;;;2.43;;
56860;SDS011;42744;51.094;3.490;2023-06-04T03:20:40;4.80;;;2.70;;
56860;SDS011;42744;51.094;3.490;2023-06-04T03:23:06;5.63;;;2.87;;
56860;SDS011;42744;51.094;3.490;2023-06-04T03:25:32;6.57;;;3.30;;
56860;SDS011;42744;51.094;3.490;2023-06-04T03:27:58;5.10;;;2.70;;
56860;SDS011;42744;51.094;3.490;2023-06-04T03:30:24;4.77;;;2.83;;
56860;SDS011;42744;51.094;3.490;2023-06-04T03:32:52;4.07;;;2.90;;
56860;SDS011;42744;51.094;3.490;2023-06-04T03:35:19;8.27;;;2.67;;
56860;SDS011;42744;51.094;3.490;2023-06-04T03:37:45;4.93;;;3.00;;
56860;SDS011;42744;51.094;3.490;2023-06-04T03:40:12;4.47;;;2.90;;
56860;SDS011;42744;51.094;3.490;2023-06-04T03:42:40;5.07;;;2.80;;
56860;SDS011;42744;51.094;3.490;2023-06-04T03:45:07;4.77;;;2.77;;
56860;SDS011;42744;51.094;3.490;2023-06-04T03:47:34;5.33;;;2.60;;
56860;SDS011;42744;51.094;3.490;2023-06-04T03:50:00;3.70;;;2.60;;
56860;SDS011;42744;51.094;3.490;2023-06-04T03:52:27;4.03;;;2.50;;
56860;SDS011;42744;51.094;3.490;2023-06-04T03:54:54;5.20;;;2.90;;
56860;SDS011;42744;51.094;3.490;2023-06-04T03:57:20;3.97;;;2.40;;
56860;SDS011;42744;51.094;3.490;2023-06-04T03:59:47;4.97;;;2.70;;
56860;SDS011;42744;51.094;3.490;2023-06-04T04:02:13;5.50;;;3.43;;
56860;SDS011;42744;51.094;3.490;2023-06-04T04:04:40;7.83;;;2.87;;
56860;SDS011;42744;51.094;3.490;2023-06-04T04:07:06;4.73;;;2.90;;
56860;SDS011;42744;51.094;3.490;2023-06-04T04:09:33;4.73;;;2.87;;
56860;SDS011;42744;51.094;3.490;2023-06-04T04:12:00;4.93;;;3.23;;
56860;SDS011;42744;51.094;3.490;2023-06-04T04:14:26;4.50;;;3.10;;
56860;SDS011;42744;51.094;3.490;2023-06-04T04:16:52;7.50;;;3.40;;
56860;SDS011;42744;51.094;3.490;2023-06-04T04:19:18;5.17;;;2.87;;
56860;SDS011;42744;51.094;3.490;2023-06-04T04:21:46;4.00;;;2.60;;
56860;SDS011;42744;51.094;3.490;2023-06-04T04:24:24;4.83;;;2.97;;
56860;SDS011;42744;51.094;3.490;2023-06-04T04:26:52;6.67;;;3.63;;
56860;SDS011;42744;51.094;3.490;2023-06-04T04:29:22;4.67;;;3.00;;
56860;SDS011;42744;51.094;3.490;2023-06-04T04:31:50;5.43;;;3.43;;
56860;SDS011;42744;51.094;3.490;2023-06-04T04:34:18;4.90;;;2.87;;
56860;SDS011;42744;51.094;3.490;2023-06-04T04:36:47;5.67;;;3.43;;
56860;SDS011;42744;51.094;3.490;2023-06-04T04:39:24;6.67;;;3.60;;
56860;SDS011;42744;51.094;3.490;2023-06-04T04:41:57;7.17;;;3.03;;
56860;SDS011;42744;51.094;3.490;2023-06-04T04:44:24;5.07;;;3.23;;
56860;SDS011;42744;51.094;3.490;2023-06-04T04:46:51;6.33;;;3.27;;
56860;SDS011;42744;51.094;3.490;2023-06-04T04:49:17;4.50;;;3.10;;
56860;SDS011;42744;51.094;3.490;2023-06-04T04:51:43;5.80;;;3.13;;
56860;SDS011;42744;51.094;3.490;2023-06-04T04:54:09;7.37;;;3.23;;
56860;SDS011;42744;51.094;3.490;2023-06-04T04:56:35;5.17;;;3.20;;
56860;SDS011;42744;51.094;3.490;2023-06-04T04:59:02;5.53;;;3.20;;
56860;SDS011;42744;51.094;3.490;2023-06-04T05:01:28;5.73;;;3.33;;
56860;SDS011;42744;51.094;3.490;2023-06-04T05:03:54;4.93;;;3.30;;
56860;SDS011;42744;51.094;3.490;2023-06-04T05:06:21;3.90;;;2.70;;
56860;SDS011;42744;51.094;3.490;2023-06-04T05:08:48;6.40;;;3.20;;
56860;SDS011;42744;51.094;3.490;2023-06-04T05:11:15;5.77;;;2.83;;
56860;SDS011;42744;51.094;3.490;2023-06-04T05:13:41;5.57;;;3.27;;
56860;SDS011;42744;51.094;3.490;2023-06-04T05:16:07;5.43;;;3.30;;
56860;SDS011;42744;51.094;3.490;2023-06-04T05:18:37;7.03;;;3.43;;
56860;SDS011;42744;51.094;3.490;2023-06-04T05:21:07;7.23;;;3.53;;
56860;SDS011;42744;51.094;3.490;2023-06-04T05:23:33;6.87;;;3.37;;
56860;SDS011;42744;51.094;3.490;2023-06-04T05:26:00;6.30;;;3.30;;
56860;SDS011;42744;51.094;3.490;2023-06-04T05:28:27;13.47;;;3.93;;
56860;SDS011;42744;51.094;3.490;2023-06-04T05:30:53;8.13;;;3.43;;
56860;SDS011;42744;51.094;3.490;2023-06-04T05:33:25;6.37;;;3.50;;
56860;SDS011;42744;51.094;3.490;2023-06-04T05:35:54;7.43;;;3.53;;
56860;SDS011;42744;51.094;3.490;2023-06-04T05:38:24;6.93;;;3.50;;
56860;SDS011;42744;51.094;3.490;2023-06-04T05:40:54;7.93;;;3.50;;
56860;SDS011;42744;51.094;3.490;2023-06-04T05:43:23;4.97;;;2.97;;
56860;SDS011;42744;51.094;3.490;2023-06-04T05:45:49;5.33;;;3.87;;
56860;SDS011;42744;51.094;3.490;2023-06-04T05:48:17;4.03;;;3.00;;
56860;SDS011;42744;51.094;3.490;2023-06-04T05:50:43;6.10;;;3.60;;
56860;SDS011;42744;51.094;3.490;2023-06-04T05:53:10;5.37;;;3.47;;
56860;SDS011;42744;51.094;3.490;2023-06-04T05:55:36;5.30;;;3.57;;
56860;SDS011;42744;51.094;3.490;2023-06-04T05:58:02;7.57;;;4.10;;
56860;SDS011;42744;51.094;3.490;2023-06-04T06:00:28;4.87;;;3.50;;
56860;SDS011;42744;51.094;3.490;2023-06-04T06:02:55;7.57;;;3.47;;
56860;SDS011;42744;51.094;3.490;2023-06-04T06:05:22;5.10;;;3.17;;
56860;SDS011;42744;51.094;3.490;2023-06-04T06:07:48;5.20;;;3.37;;
56860;SDS011;42744;51.094;3.490;2023-06-04T06:10:14;6.10;;;3.83;;
56860;SDS011;42744;51.094;3.490;2023-06-04T06:12:41;5.57;;;3.33;;
56860;SDS011;42744;51.094;3.490;2023-06-04T06:15:07;6.53;;;3.10;;
56860;SDS011;42744;51.094;3.490;2023-06-04T06:17:33;3.87;;;3.10;;
56860;SDS011;42744;51.094;3.490;2023-06-04T06:20:01;5.73;;;3.47;;
56860;SDS011;42744;51.094;3.490;2023-06-04T06:22:31;6.10;;;3.37;;
56860;SDS011;42744;51.094;3.490;2023-06-04T06:24:58;4.77;;;3.47;;
56860;SDS011;42744;51.094;3.490;2023-06-04T06:27:24;5.27;;;3.53;;
56860;SDS011;42744;51.094;3.490;2023-06-04T06:29:50;5.93;;;3.60;;
56860;SDS011;42744;51.094;3.490;2023-06-04T06:32:16;5.17;;;3.20;;
56860;SDS011;42744;51.094;3.490;2023-06-04T06:34:42;5.73;;;2.93;;
56860;SDS011;42744;51.094;3.490;2023-06-04T06:37:08;4.17;;;3.37;;
56860;SDS011;42744;51.094;3.490;2023-06-04T06:39:34;5.30;;;3.53;;
56860;SDS011;42744;51.094;3.490;2023-06-04T06:42:00;6.17;;;3.50;;
56860;SDS011;42744;51.094;3.490;2023-06-04T06:44:27;3.87;;;2.70;;
56860;SDS011;42744;51.094;3.490;2023-06-04T06:46:53;5.77;;;3.33;;
56860;SDS011;42744;51.094;3.490;2023-06-04T06:49:19;7.93;;;3.60;;
56860;SDS011;42744;51.094;3.490;2023-06-04T06:51:45;4.50;;;3.10;;
56860;SDS011;42744;51.094;3.490;2023-06-04T06:54:14;5.47;;;3.27;;
56860;SDS011;42744;51.094;3.490;2023-06-04T06:56:41;5.30;;;3.73;;
56860;SDS011;42744;51.094;3.490;2023-06-04T06:59:07;5.50;;;3.73;;
56860;SDS011;42744;51.094;3.490;2023-06-04T07:01:33;7.43;;;3.43;;
56860;SDS011;42744;51.094;3.490;2023-06-04T07:03:59;6.80;;;3.00;;
56860;SDS011;42744;51.094;3.490;2023-06-04T07:06:25;7.23;;;3.77;;
56860;SDS011;42744;51.094;3.490;2023-06-04T07:08:51;6.53;;;2.97;;
56860;SDS011;42744;51.094;3.490;2023-06-04T07:11:19;7.97;;;3.57;;
56860;SDS011;42744;51.094;3.490;2023-06-04T07:13:45;6.37;;;3.63;;
56860;SDS011;42744;51.094;3.490;2023-06-04T07:16:11;5.07;;;3.27;;
56860;SDS011;42744;51.094;3.490;2023-06-04T07:18:37;4.30;;;2.70;;
56860;SDS011;42744;51.094;3.490;2023-06-04T07:21:03;5.97;;;3.50;;
56860;SDS011;42744;51.094;3.490;2023-06-04T07:23:29;5.00;;;3.03;;
56860;SDS011;42744;51.094;3.490;2023-06-04T07:25:55;7.00;;;3.63;;
56860;SDS011;42744;51.094;3.490;2023-06-04T07:28:22;4.20;;;2.90;;
56860;SDS011;42744;51.094;3.490;2023-06-04T07:30:48;5.10;;;3.53;;
56860;SDS011;42744;51.094;3.490;2023-06-04T07:33:15;4.47;;;2.97;;
56860;SDS011;42744;51.094;3.490;2023-06-04T07:35:41;6.43;;;3.73;;
56860;SDS011;42744;51.094;3.490;2023-06-04T07:38:07;5.70;;;3.27;;
56860;SDS011;42744;51.094;3.490;2023-06-04T07:40:33;6.27;;;3.50;;
56860;SDS011;42744;51.094;3.490;2023-06-04T07:42:59;3.90;;;2.70;;
56860;SDS011;42744;51.094;3.490;2023-06-04T07:45:26;5.50;;;2.83;;
56860;SDS011;42744;51.094;3.490;2023-06-04T07:47:53;6.30;;;3.00;;
56860;SDS011;42744;51.094;3.490;2023-06-04T07:50:19;4.97;;;2.53;;
56860;SDS011;42744;51.094;3.490;2023-06-04T07:52:46;5.30;;;3.10;;
56860;SDS011;42744;51.094;3.490;2023-06-04T07:55:12;6.67;;;2.93;;
56860;SDS011;42744;51.094;3.490;2023-06-04T07:57:38;4.57;;;2.57;;
56860;SDS011;42744;51.094;3.490;2023-06-04T08:00:05;5.17;;;3.00;;
56860;SDS011;42744;51.094;3.490;2023-06-04T08:02:37;3.70;;;2.80;;
56860;SDS011;42744;51.094;3.490;2023-06-04T08:05:03;3.57;;;2.77;;
56860;SDS011;42744;51.094;3.490;2023-06-04T08:07:29;4.27;;;2.47;;
56860;SDS011;42744;51.094;3.490;2023-06-04T08:09:55;6.57;;;2.73;;
56860;SDS011;42744;51.094;3.490;2023-06-04T08:12:22;4.77;;;2.40;;
56860;SDS011;42744;51.094;3.490;2023-06-04T08:14:48;4.00;;;2.60;;
56860;SDS011;42744;51.094;3.490;2023-06-04T08:17:15;6.53;;;2.83;;
56860;SDS011;42744;51.094;3.490;2023-06-04T08:19:42;5.27;;;2.70;;
56860;SDS011;42744;51.094;3.490;2023-06-04T08:22:08;4.60;;;2.73;;
56860;SDS011;42744;51.094;3.490;2023-06-04T08:24:36;5.17;;;2.43;;
56860;SDS011;42744;51.094;3.490;2023-06-04T08:27:02;4.37;;;2.67;;
56860;SDS011;42744;51.094;3.490;2023-06-04T08:29:28;3.53;;;2.30;;
56860;SDS011;42744;51.094;3.490;2023-06-04T08:31:54;3.90;;;2.60;;
56860;SDS011;42744;51.094;3.490;2023-06-04T08:34:21;3.23;;;2.20;;
56860;SDS011;42744;51.094;3.490;2023-06-04T08:36:46;3.57;;;2.50;;
56860;SDS011;42744;51.094;3.490;2023-06-04T08:39:13;4.83;;;1.90;;
56860;SDS011;42744;51.094;3.490;2023-06-04T08:41:48;5.30;;;2.10;;
56860;SDS011;42744;51.094;3.490;2023-06-04T08:44:19;3.80;;;2.10;;
56860;SDS011;42744;51.094;3.490;2023-06-04T08:46:47;2.90;;;2.00;;
56860;SDS011;42744;51.094;3.490;2023-06-04T08:49:18;3.20;;;2.23;;
56860;SDS011;42744;51.094;3.490;2023-06-04T08:51:46;4.47;;;2.20;;
56860;SDS011;42744;51.094;3.490;2023-06-04T08:54:12;3.17;;;2.33;;
56860;SDS011;42744;51.094;3.490;2023-06-04T08:56:42;4.40;;;2.13;;
56860;SDS011;42744;51.094;3.490;2023-06-04T08:59:09;5.07;;;2.70;;
56860;SDS011;42744;51.094;3.490;2023-06-04T09:01:36;3.37;;;1.90;;
56860;SDS011;42744;51.094;3.490;2023-06-04T09:04:06;3.37;;;2.40;;
56860;SDS011;42744;51.094;3.490;2023-06-04T09:06:33;3.53;;;2.13;;
56860;SDS011;42744;51.094;3.490;2023-06-04T09:08:59;3.67;;;2.40;;
56860;SDS011;42744;51.094;3.490;2023-06-04T09:11:37;4.77;;;2.30;;
56860;SDS011;42744;51.094;3.490;2023-06-04T09:14:09;3.47;;;1.80;;
56860;SDS011;42744;51.094;3.490;2023-06-04T09:16:50;2.50;;;1.80;;
56860;SDS011;42744;51.094;3.490;2023-06-04T09:19:17;3.93;;;1.80;;
56860;SDS011;42744;51.094;3.490;2023-06-04T09:22:00;7.30;;;1.50;;
56860;SDS011;42744;51.094;3.490;2023-06-04T09:24:39;2.70;;;1.70;;
56860;SDS011;42744;51.094;3.490;2023-06-04T09:27:11;2.53;;;1.30;;
56860;SDS011;42744;51.094;3.490;2023-06-04T09:29:39;2.83;;;1.80;;
56860;SDS011;42744;51.094;3.490;2023-06-04T09:32:14;2.33;;;1.60;;
56860;SDS011;42744;51.094;3.490;2023-06-04T09:34:39;3.78;;;1.50;;
56860;SDS011;42744;51.094;3.490;2023-06-04T09:37:13;4.30;;;1.40;;
56860;SDS011;42744;51.094;3.490;2023-06-04T09:39:41;4.40;;;1.97;;
56860;SDS011;42744;51.094;3.490;2023-06-04T09:42:07;3.15;;;1.55;;
56860;SDS011;42744;51.094;3.490;2023-06-04T09:44:42;1.67;;;1.27;;
56860;SDS011;42744;51.094;3.490;2023-06-04T09:47:11;4.18;;;1.65;;
56860;SDS011;42744;51.094;3.490;2023-06-04T09:49:42;3.75;;;1.30;;
56860;SDS011;42744;51.094;3.490;2023-06-04T09:52:09;2.57;;;1.13;;
56860;SDS011;42744;51.094;3.490;2023-06-04T09:54:36;1.67;;;1.12;;
56860;SDS011;42744;51.094;3.490;2023-06-04T09:57:13;3.83;;;1.52;;
56860;SDS011;42744;51.094;3.490;2023-06-04T09:59:44;1.75;;;1.30;;
56860;SDS011;42744;51.094;3.490;2023-06-04T10:02:12;3.22;;;1.20;;
56860;SDS011;42744;51.094;3.490;2023-06-04T10:04:40;1.62;;;0.98;;
56860;SDS011;42744;51.094;3.490;2023-06-04T10:07:11;2.85;;;1.48;;
56860;SDS011;42744;51.094;3.490;2023-06-04T10:09:42;3.72;;;1.70;;
56860;SDS011;42744;51.094;3.490;2023-06-04T10:12:16;2.12;;;1.37;;
56860;SDS011;42744;51.094;3.490;2023-06-04T10:14:55;3.72;;;1.20;;
56860;SDS011;42744;51.094;3.490;2023-06-04T10:17:24;1.55;;;1.20;;
56860;SDS011;42744;51.094;3.490;2023-06-04T10:19:53;2.05;;;1.05;;
56860;SDS011;42744;51.094;3.490;2023-06-04T10:22:22;1.92;;;1.40;;
56860;SDS011;42744;51.094;3.490;2023-06-04T10:24:49;2.03;;;1.45;;
56860;SDS011;42744;51.094;3.490;2023-06-04T10:27:19;3.22;;;1.37;;
56860;SDS011;42744;51.094;3.490;2023-06-04T10:29:45;2.60;;;1.10;;
56860;SDS011;42744;51.094;3.490;2023-06-04T10:32:12;3.00;;;1.58;;
56860;SDS011;42744;51.094;3.490;2023-06-04T10:34:38;2.15;;;1.25;;
56860;SDS011;42744;51.094;3.490;2023-06-04T10:37:04;2.20;;;1.17;;
56860;SDS011;42744;51.094;3.490;2023-06-04T10:39:32;2.67;;;1.37;;
56860;SDS011;42744;51.094;3.490;2023-06-04T10:42:02;2.08;;;0.90;;
56860;SDS011;42744;51.094;3.490;2023-06-04T10:44:32;3.00;;;1.33;;
56860;SDS011;42744;51.094;3.490;2023-06-04T10:47:35;2.42;;;1.20;;
56860;SDS011;42744;51.094;3.490;2023-06-04T10:52:37;2.72;;;1.30;;
56860;SDS011;42744;51.094;3.490;2023-06-04T10:55:08;3.70;;;1.35;;
56860;SDS011;42744;51.094;3.490;2023-06-04T10:57:34;5.62;;;1.42;;
56860;SDS011;42744;51.094;3.490;2023-06-04T11:00:02;2.50;;;1.17;;
56860;SDS011;42744;51.094;3.490;2023-06-04T11:02:31;2.70;;;1.35;;
56860;SDS011;42744;51.094;3.490;2023-06-04T11:05:06;2.50;;;1.40;;
56860;SDS011;42744;51.094;3.490;2023-06-04T11:07:42;2.10;;;1.20;;
56860;SDS011;42744;51.094;3.490;2023-06-04T11:10:14;1.80;;;1.40;;
56860;SDS011;42744;51.094;3.490;2023-06-04T11:12:45;3.20;;;1.73;;
56860;SDS011;42744;51.094;3.490;2023-06-04T11:15:13;4.68;;;1.45;;
56860;SDS011;42744;51.094;3.490;2023-06-04T11:17:49;2.90;;;1.20;;
56860;SDS011;42744;51.094;3.490;2023-06-04T11:20:17;4.00;;;1.30;;
56860;SDS011;42744;51.094;3.490;2023-06-04T11:23:17;1.83;;;1.23;;
56860;SDS011;42744;51.094;3.490;2023-06-04T11:25:37;2.95;;;1.50;;
56860;SDS011;42744;51.094;3.490;2023-06-04T11:28:03;2.50;;;1.40;;
56860;SDS011;42744;51.094;3.490;2023-06-04T11:30:29;1.90;;;1.17;;
56860;SDS011;42744;51.094;3.490;2023-06-04T11:33:02;4.78;;;1.75;;
56860;SDS011;42744;51.094;3.490;2023-06-04T11:35:30;3.15;;;1.70;;
56860;SDS011;42744;51.094;3.490;2023-06-04T11:37:57;4.00;;;1.58;;
56860;SDS011;42744;51.094;3.490;2023-06-04T11:40:24;4.40;;;2.50;;
56860;SDS011;42744;51.094;3.490;2023-06-04T11:42:52;1.65;;;1.50;;
56860;SDS011;42744;51.094;3.490;2023-06-04T11:45:20;1.85;;;1.40;;
56860;SDS011;42744;51.094;3.490;2023-06-04T11:47:48;2.15;;;1.50;;
56860;SDS011;42744;51.094;3.490;2023-06-04T11:50:15;4.28;;;1.45;;
56860;SDS011;42744;51.094;3.490;2023-06-04T11:52:41;1.73;;;1.23;;
56860;SDS011;42744;51.094;3.490;2023-06-04T11:55:08;2.28;;;1.42;;
56860;SDS011;42744;51.094;3.490;2023-06-04T11:57:35;3.30;;;1.40;;
56860;SDS011;42744;51.094;3.490;2023-06-04T12:00:03;2.80;;;1.62;;
56860;SDS011;42744;51.094;3.490;2023-06-04T12:02:48;2.40;;;1.20;;
56860;SDS011;42744;51.094;3.490;2023-06-04T12:05:21;2.05;;;1.23;;
56860;SDS011;42744;51.094;3.490;2023-06-04T12:07:52;2.85;;;1.10;;
56860;SDS011;42744;51.094;3.490;2023-06-04T12:10:28;2.67;;;1.05;;
56860;SDS011;42744;51.094;3.490;2023-06-04T12:12:54;2.55;;;1.27;;
56860;SDS011;42744;51.094;3.490;2023-06-04T12:15:21;3.12;;;1.40;;
56860;SDS011;42744;51.094;3.490;2023-06-04T12:17:51;2.97;;;1.30;;
56860;SDS011;42744;51.094;3.490;2023-06-04T12:20:19;2.53;;;1.10;;
56860;SDS011;42744;51.094;3.490;2023-06-04T12:23:00;2.62;;;1.52;;
56860;SDS011;42744;51.094;3.490;2023-06-04T12:25:27;1.33;;;0.80;;
56860;SDS011;42744;51.094;3.490;2023-06-04T12:27:54;2.47;;;1.23;;
56860;SDS011;42744;51.094;3.490;2023-06-04T12:30:20;2.53;;;1.40;;
56860;SDS011;42744;51.094;3.490;2023-06-04T12:32:46;3.15;;;1.60;;
56860;SDS011;42744;51.094;3.490;2023-06-04T12:35:13;1.42;;;0.90;;
56860;SDS011;42744;51.094;3.490;2023-06-04T12:37:40;1.90;;;1.20;;
56860;SDS011;42744;51.094;3.490;2023-06-04T12:40:07;1.92;;;0.77;;
56860;SDS011;42744;51.094;3.490;2023-06-04T12:42:34;2.20;;;1.20;;
56860;SDS011;42744;51.094;3.490;2023-06-04T12:45:00;1.92;;;1.10;;
56860;SDS011;42744;51.094;3.490;2023-06-04T12:47:26;1.23;;;0.90;;
56860;SDS011;42744;51.094;3.490;2023-06-04T12:49:52;2.75;;;1.00;;
56860;SDS011;42744;51.094;3.490;2023-06-04T12:52:18;3.20;;;1.02;;
56860;SDS011;42744;51.094;3.490;2023-06-04T12:54:44;2.95;;;1.27;;
56860;SDS011;42744;51.094;3.490;2023-06-04T12:57:10;3.50;;;1.10;;
56860;SDS011;42744;51.094;3.490;2023-06-04T12:59:36;1.48;;;1.00;;
56860;SDS011;42744;51.094;3.490;2023-06-04T13:02:02;2.33;;;1.15;;
56860;SDS011;42744;51.094;3.490;2023-06-04T13:04:28;2.83;;;1.48;;
56860;SDS011;42744;51.094;3.490;2023-06-04T13:06:55;2.80;;;1.17;;
56860;SDS011;42744;51.094;3.490;2023-06-04T13:09:24;1.30;;;0.80;;
56860;SDS011;42744;51.094;3.490;2023-06-04T13:11:53;1.75;;;1.10;;
56860;SDS011;42744;51.094;3.490;2023-06-04T13:14:19;1.98;;;1.20;;
56860;SDS011;42744;51.094;3.490;2023-06-04T13:16:45;2.35;;;1.15;;
56860;SDS011;42744;51.094;3.490;2023-06-04T13:19:14;2.03;;;1.00;;
56860;SDS011;42744;51.094;3.490;2023-06-04T13:21:40;2.17;;;1.20;;
56860;SDS011;42744;51.094;3.490;2023-06-04T13:24:09;2.08;;;1.17;;
56860;SDS011;42744;51.094;3.490;2023-06-04T13:26:36;3.20;;;1.12;;
56860;SDS011;42744;51.094;3.490;2023-06-04T13:29:04;2.70;;;1.10;;
56860;SDS011;42744;51.094;3.490;2023-06-04T13:31:30;1.98;;;1.17;;
56860;SDS011;42744;51.094;3.490;2023-06-04T13:33:56;2.42;;;1.27;;
56860;SDS011;42744;51.094;3.490;2023-06-04T13:36:22;1.77;;;1.00;;
56860;SDS011;42744;51.094;3.490;2023-06-04T13:38:48;3.40;;;1.08;;
56860;SDS011;42744;51.094;3.490;2023-06-04T13:41:14;1.83;;;1.00;;
56860;SDS011;42744;51.094;3.490;2023-06-04T13:43:40;1.50;;;1.15;;
56860;SDS011;42744;51.094;3.490;2023-06-04T13:46:06;3.90;;;1.20;;
56860;SDS011;42744;51.094;3.490;2023-06-04T13:48:32;2.05;;;1.10;;
56860;SDS011;42744;51.094;3.490;2023-06-04T13:50:58;2.03;;;1.33;;
56860;SDS011;42744;51.094;3.490;2023-06-04T13:53:24;1.65;;;1.08;;
56860;SDS011;42744;51.094;3.490;2023-06-04T13:55:50;2.65;;;1.70;;
56860;SDS011;42744;51.094;3.490;2023-06-04T13:58:22;4.28;;;1.30;;
56860;SDS011;42744;51.094;3.490;2023-06-04T14:00:49;1.67;;;1.20;;
56860;SDS011;42744;51.094;3.490;2023-06-04T14:03:16;1.92;;;1.40;;
56860;SDS011;42744;51.094;3.490;2023-06-04T14:05:41;3.33;;;1.42;;
56860;SDS011;42744;51.094;3.490;2023-06-04T14:08:07;4.85;;;1.62;;
56860;SDS011;42744;51.094;3.490;2023-06-04T14:10:34;2.53;;;1.60;;
56860;SDS011;42744;51.094;3.490;2023-06-04T14:13:01;1.65;;;1.25;;
56860;SDS011;42744;51.094;3.490;2023-06-04T14:15:28;2.85;;;1.60;;
56860;SDS011;42744;51.094;3.490;2023-06-04T14:17:54;2.62;;;1.20;;
56860;SDS011;42744;51.094;3.490;2023-06-04T14:20:20;3.70;;;1.52;;
56860;SDS011;42744;51.094;3.490;2023-06-04T14:22:46;4.60;;;1.70;;
56860;SDS011;42744;51.094;3.490;2023-06-04T14:25:12;5.43;;;1.95;;
56860;SDS011;42744;51.094;3.490;2023-06-04T14:27:38;5.22;;;1.37;;
56860;SDS011;42744;51.094;3.490;2023-06-04T14:30:04;6.78;;;1.45;;
56860;SDS011;42744;51.094;3.490;2023-06-04T14:32:31;8.25;;;1.87;;
56860;SDS011;42744;51.094;3.490;2023-06-04T14:34:59;7.32;;;2.00;;
56860;SDS011;42744;51.094;3.490;2023-06-04T14:37:25;4.57;;;1.30;;
56860;SDS011;42744;51.094;3.490;2023-06-04T14:39:51;3.22;;;1.30;;
56860;SDS011;42744;51.094;3.490;2023-06-04T14:42:17;4.30;;;1.30;;
56860;SDS011;42744;51.094;3.490;2023-06-04T14:44:43;5.95;;;1.92;;
56860;SDS011;42744;51.094;3.490;2023-06-04T14:47:10;3.95;;;1.20;;
56860;SDS011;42744;51.094;3.490;2023-06-04T14:49:36;2.33;;;1.30;;
56860;SDS011;42744;51.094;3.490;2023-06-04T14:52:02;5.37;;;1.65;;
56860;SDS011;42744;51.094;3.490;2023-06-04T14:54:29;4.30;;;1.50;;
56860;SDS011;42744;51.094;3.490;2023-06-04T14:56:55;6.07;;;1.50;;
56860;SDS011;42744;51.094;3.490;2023-06-04T14:59:21;4.37;;;1.42;;
56860;SDS011;42744;51.094;3.490;2023-06-04T15:01:47;4.12;;;1.48;;
56860;SDS011;42744;51.094;3.490;2023-06-04T15:04:13;3.40;;;1.10;;
56860;SDS011;42744;51.094;3.490;2023-06-04T15:06:39;9.75;;;2.35;;
56860;SDS011;42744;51.094;3.490;2023-06-04T15:09:05;4.60;;;1.50;;